<?xml version="1.0" encoding="UTF-8" standalone="no" ?>
<gpx xmlns="http://www.topografix.com/GPX/1/1" creator="BaseCamp 3.1.3" version="1.1" xmlns:xsi="http://www.w3.org/2001/XMLSchema-instance" xsi:schemaLocation="http://www.topografix.com/GPX/1/1 http://www.topografix.com/GPX/1/1/gpx.xsd">

  <metadata>
    <link href="http://www.garmin.com">
      <text>Garmin International</text>
    </link>
    <time>2011-03-10T15:21:36Z</time>
    <bounds maxlat="50.898159015923738" maxlon="8.073359029367566" minlat="50.886135008186102" minlon="8.055387977510691"/>
  </metadata>

  <trk>
    <name>Ameisenweg</name>
    <extensions>
      <gpxx:TrackExtension xmlns:gpxx="http://www.garmin.com/xmlschemas/GpxExtensions/v3">
        <gpxx:DisplayColor>Black</gpxx:DisplayColor>
      </gpxx:TrackExtension>
    </extensions>
    <trkseg>
      <trkpt lat="50.888011967763305" lon="8.060088967904449">
        <ele>315.93000000000001</ele>
        <time>2011-03-10T08:13:55Z</time>
      </trkpt>
      <trkpt lat="50.889003966003656" lon="8.060213020071387">
        <ele>318.32999999999998</ele>
        <time>2011-03-10T08:15:26Z</time>
      </trkpt>
      <trkpt lat="50.890086991712451" lon="8.060334976762533">
        <ele>317.37</ele>
        <time>2011-03-10T08:16:54Z</time>
      </trkpt>
      <trkpt lat="50.891125006601214" lon="8.059860980138183">
        <ele>312.08999999999997</ele>
        <time>2011-03-10T08:18:25Z</time>
      </trkpt>
      <trkpt lat="50.892100995406508" lon="8.059537019580603">
        <ele>315.93000000000001</ele>
        <time>2011-03-10T08:19:48Z</time>
      </trkpt>
      <trkpt lat="50.892765009775758" lon="8.05781302973628">
        <ele>324.10000000000002</ele>
        <time>2011-03-10T08:21:49Z</time>
      </trkpt>
      <trkpt lat="50.893742004409432" lon="8.056672001257539">
        <ele>332.75</ele>
        <time>2011-03-10T08:23:42Z</time>
      </trkpt>
      <trkpt lat="50.894759986549616" lon="8.055543964728713">
        <ele>340.92000000000002</ele>
        <time>2011-03-10T08:25:36Z</time>
      </trkpt>
      <trkpt lat="50.895702028647065" lon="8.055387977510691">
        <ele>355.82999999999998</ele>
        <time>2011-03-10T08:27:31Z</time>
      </trkpt>
      <trkpt lat="50.895645031705499" lon="8.057065028697252">
        <ele>367.36000000000001</ele>
        <time>2011-03-10T08:29:35Z</time>
      </trkpt>
      <trkpt lat="50.89573698118329" lon="8.058614004403353">
        <ele>370.73000000000002</ele>
        <time>2011-03-10T08:31:06Z</time>
      </trkpt>
      <trkpt lat="50.896423039957881" lon="8.059909008443356">
        <ele>373.61000000000001</ele>
        <time>2011-03-10T08:32:37Z</time>
      </trkpt>
      <trkpt lat="50.897334991022944" lon="8.061093036085367">
        <ele>375.52999999999997</ele>
        <time>2011-03-10T08:34:27Z</time>
      </trkpt>
      <trkpt lat="50.898159015923738" lon="8.062790036201477">
        <ele>377.94</ele>
        <time>2011-03-10T08:36:20Z</time>
      </trkpt>
      <trkpt lat="50.898117022588849" lon="8.064652998000383">
        <ele>381.77999999999997</ele>
        <time>2011-03-10T08:38:04Z</time>
      </trkpt>
      <trkpt lat="50.897858021780849" lon="8.066561976447702">
        <ele>390.43000000000001</ele>
        <time>2011-03-10T08:40:18Z</time>
      </trkpt>
      <trkpt lat="50.897541018202901" lon="8.068323014304042">
        <ele>395.24000000000001</ele>
        <time>2011-03-10T08:41:57Z</time>
      </trkpt>
      <trkpt lat="50.896670976653695" lon="8.069756990298629">
        <ele>403.41000000000003</ele>
        <time>2011-03-10T08:43:52Z</time>
      </trkpt>
      <trkpt lat="50.895817028358579" lon="8.070791987702251">
        <ele>411.10000000000002</ele>
        <time>2011-03-10T08:46:20Z</time>
      </trkpt>
      <trkpt lat="50.89493902400136" lon="8.07152196764946">
        <ele>416.87</ele>
        <time>2011-03-10T08:48:26Z</time>
      </trkpt>
      <trkpt lat="50.894168978556991" lon="8.072585966438055">
        <ele>413.01999999999998</ele>
        <time>2011-03-10T08:50:06Z</time>
      </trkpt>
      <trkpt lat="50.892982017248869" lon="8.073359029367566">
        <ele>408.22000000000003</ele>
        <time>2011-03-10T08:52:05Z</time>
      </trkpt>
      <trkpt lat="50.892184982076287" lon="8.072242978960276">
        <ele>407.74000000000001</ele>
        <time>2011-03-10T08:53:32Z</time>
      </trkpt>
      <trkpt lat="50.891433963552117" lon="8.070932971313596">
        <ele>406.29000000000002</ele>
        <time>2011-03-10T08:55:04Z</time>
      </trkpt>
      <trkpt lat="50.89072803966701" lon="8.069509975612164">
        <ele>403.88999999999999</ele>
        <time>2011-03-10T08:56:39Z</time>
      </trkpt>
      <trkpt lat="50.890227975323796" lon="8.067622035741806">
        <ele>403.41000000000003</ele>
        <time>2011-03-10T08:58:17Z</time>
      </trkpt>
      <trkpt lat="50.889941984787583" lon="8.065903997048736">
        <ele>396.19999999999999</ele>
        <time>2011-03-10T08:59:53Z</time>
      </trkpt>
      <trkpt lat="50.88922499679029" lon="8.064867993816733">
        <ele>395.24000000000001</ele>
        <time>2011-03-10T09:01:19Z</time>
      </trkpt>
      <trkpt lat="50.888393009081483" lon="8.06434596888721">
        <ele>396.19999999999999</ele>
        <time>2011-03-10T09:02:51Z</time>
      </trkpt>
      <trkpt lat="50.887592034414411" lon="8.065261021256447">
        <ele>393.31999999999999</ele>
        <time>2011-03-10T09:05:13Z</time>
      </trkpt>
      <trkpt lat="50.887402016669512" lon="8.067506030201912">
        <ele>381.30000000000001</ele>
        <time>2011-03-10T09:07:16Z</time>
      </trkpt>
      <trkpt lat="50.886691985651851" lon="8.067743992432952">
        <ele>372.17000000000002</ele>
        <time>2011-03-10T09:10:49Z</time>
      </trkpt>
      <trkpt lat="50.886341035366058" lon="8.065963005647063">
        <ele>356.79000000000002</ele>
        <time>2011-03-10T09:12:45Z</time>
      </trkpt>
      <trkpt lat="50.88643298484385" lon="8.064315961673856">
        <ele>361.11000000000001</ele>
        <time>2011-03-10T09:14:24Z</time>
      </trkpt>
      <trkpt lat="50.886135008186102" lon="8.062633965164423">
        <ele>362.55000000000001</ele>
        <time>2011-03-10T09:16:01Z</time>
      </trkpt>
      <trkpt lat="50.886570028960705" lon="8.061258997768164">
        <ele>348.13</ele>
        <time>2011-03-10T09:17:30Z</time>
      </trkpt>
      <trkpt lat="50.887927981093526" lon="8.060696991160512">
        <ele>323.62</ele>
        <time>2011-03-10T09:19:57Z</time>
      </trkpt>
      <trkpt lat="50.888062007725239" lon="8.060039011761546">
        <ele>308.24000000000001</ele>
        <time>2011-03-10T09:22:31Z</time>
      </trkpt>
    </trkseg>
  </trk>

</gpx>
